Terry, Mississippi
Current Conditions -  °F | °C
As of 12:55 PM on Monday 20 Oct 2014 (Local Time) from KJVW Reporting Station
Clear Clear  
Wind Chill: 73°   Ceiling: Unl
Heat Index: 73°   Visibility: 10mi
Dew Point: 68°   Wind: 8mph
Humidity: 83%   Direction: 300°WNW
Pressure: 30.07"   Gusts: NA
Location:  32.1°N, 90.29°W
Report Text: KJVW 201755Z AUTO 30007KT 10SM CLR 23/20 A3007 RMK AO2
Loading
Personal Weather Stations






























Interactive Weather Map
Tropical Storm Tracking
New forecast layout! Learn more

10-Day Weather Forecast

Advertisements
Track Severe Weather on mobile